sensor_id;sensor_type;location;lat;lon;timestamp;temperature;humidity
11399;DHT22;5755;48.116;11.608;2023-09-19T00:02:04;16.20;99.90
11399;DHT22;5755;48.116;11.608;2023-09-19T00:04:35;16.20;99.90
11399;DHT22;5755;48.116;11.608;2023-09-19T00:07:05;16.20;99.90
11399;DHT22;5755;48.116;11.608;2023-09-19T00:09:32;16.30;99.90
11399;DHT22;5755;48.116;11.608;2023-09-19T00:12:03;16.30;99.90
11399;DHT22;5755;48.116;11.608;2023-09-19T00:14:30;16.40;99.70
11399;DHT22;5755;48.116;11.608;2023-09-19T00:17:03;16.40;99.50
11399;DHT22;5755;48.116;11.608;2023-09-19T00:19:35;16.40;99.50
11399;DHT22;5755;48.116;11.608;2023-09-19T00:22:03;16.50;99.30
11399;DHT22;5755;48.116;11.608;2023-09-19T00:24:30;16.50;99.40
11399;DHT22;5755;48.116;11.608;2023-09-19T00:26:57;16.50;99.30
11399;DHT22;5755;48.116;11.608;2023-09-19T00:29:25;16.50;99.20
11399;DHT22;5755;48.116;11.608;2023-09-19T00:31:55;16.50;99.10
11399;DHT22;5755;48.116;11.608;2023-09-19T00:34:21;16.50;98.70
11399;DHT22;5755;48.116;11.608;2023-09-19T00:36:50;16.60;98.40
11399;DHT22;5755;48.116;11.608;2023-09-19T00:39:19;16.60;98.60
11399;DHT22;5755;48.116;11.608;2023-09-19T00:41:47;16.60;98.60
11399;DHT22;5755;48.116;11.608;2023-09-19T00:44:14;16.60;98.50
11399;DHT22;5755;48.116;11.608;2023-09-19T00:46:43;16.60;98.70
11399;DHT22;5755;48.116;11.608;2023-09-19T00:49:12;16.60;98.60
11399;DHT22;5755;48.116;11.608;2023-09-19T00:51:40;16.50;98.90
11399;DHT22;5755;48.116;11.608;2023-09-19T00:54:13;16.50;99.00
11399;DHT22;5755;48.116;11.608;2023-09-19T00:56:44;16.50;98.90
11399;DHT22;5755;48.116;11.608;2023-09-19T00:59:11;16.40;99.30
11399;DHT22;5755;48.116;11.608;2023-09-19T01:01:39;16.40;99.10
11399;DHT22;5755;48.116;11.608;2023-09-19T01:04:06;16.40;99.00
11399;DHT22;5755;48.116;11.608;2023-09-19T01:06:33;16.40;99.00
11399;DHT22;5755;48.116;11.608;2023-09-19T01:09:02;16.30;99.00
11399;DHT22;5755;48.116;11.608;2023-09-19T01:11:37;16.40;99.00
11399;DHT22;5755;48.116;11.608;2023-09-19T01:14:15;16.40;99.20
11399;DHT22;5755;48.116;11.608;2023-09-19T01:16:53;16.40;99.20
11399;DHT22;5755;48.116;11.608;2023-09-19T01:22:29;16.50;98.70
11399;DHT22;5755;48.116;11.608;2023-09-19T01:25:13;16.50;98.50
11399;DHT22;5755;48.116;11.608;2023-09-19T01:28:08;16.40;98.60
11399;DHT22;5755;48.116;11.608;2023-09-19T01:30:44;16.50;98.30
11399;DHT22;5755;48.116;11.608;2023-09-19T01:33:12;16.50;98.20
11399;DHT22;5755;48.116;11.608;2023-09-19T01:35:40;16.50;98.40
11399;DHT22;5755;48.116;11.608;2023-09-19T01:38:09;16.50;98.60
11399;DHT22;5755;48.116;11.608;2023-09-19T01:40:42;16.50;98.70
11399;DHT22;5755;48.116;11.608;2023-09-19T01:43:17;16.50;98.20
11399;DHT22;5755;48.116;11.608;2023-09-19T01:45:50;16.50;98.20
11399;DHT22;5755;48.116;11.608;2023-09-19T01:48:25;16.60;97.90
11399;DHT22;5755;48.116;11.608;2023-09-19T01:51:00;16.60;97.60
11399;DHT22;5755;48.116;11.608;2023-09-19T01:53:33;16.60;97.50
11399;DHT22;5755;48.116;11.608;2023-09-19T01:56:01;16.50;97.80
11399;DHT22;5755;48.116;11.608;2023-09-19T01:58:34;16.50;98.10
11399;DHT22;5755;48.116;11.608;2023-09-19T02:01:04;16.50;98.10
11399;DHT22;5755;48.116;11.608;2023-09-19T02:03:34;16.50;98.00
11399;DHT22;5755;48.116;11.608;2023-09-19T02:06:04;16.50;98.30
11399;DHT22;5755;48.116;11.608;2023-09-19T02:08:37;16.50;98.20
11399;DHT22;5755;48.116;11.608;2023-09-19T02:11:05;16.50;98.40
11399;DHT22;5755;48.116;11.608;2023-09-19T02:13:31;16.50;98.20
11399;DHT22;5755;48.116;11.608;2023-09-19T02:15:59;16.50;98.20
11399;DHT22;5755;48.116;11.608;2023-09-19T02:18:28;16.60;98.10
11399;DHT22;5755;48.116;11.608;2023-09-19T02:20:56;16.50;98.00
11399;DHT22;5755;48.116;11.608;2023-09-19T02:23:23;16.50;97.80
11399;DHT22;5755;48.116;11.608;2023-09-19T02:25:53;16.60;98.00
11399;DHT22;5755;48.116;11.608;2023-09-19T02:28:20;16.60;97.70
11399;DHT22;5755;48.116;11.608;2023-09-19T02:30:47;16.70;97.30
11399;DHT22;5755;48.116;11.608;2023-09-19T02:33:15;16.60;97.30
11399;DHT22;5755;48.116;11.608;2023-09-19T02:35:44;16.60;97.90
11399;DHT22;5755;48.116;11.608;2023-09-19T02:38:11;16.70;98.10
11399;DHT22;5755;48.116;11.608;2023-09-19T02:40:38;16.70;97.50
11399;DHT22;5755;48.116;11.608;2023-09-19T02:43:05;16.70;97.30
11399;DHT22;5755;48.116;11.608;2023-09-19T02:45:34;16.60;97.60
11399;DHT22;5755;48.116;11.608;2023-09-19T02:48:01;16.60;97.60
11399;DHT22;5755;48.116;11.608;2023-09-19T02:50:29;16.50;97.80
11399;DHT22;5755;48.116;11.608;2023-09-19T02:52:58;16.40;97.90
11399;DHT22;5755;48.116;11.608;2023-09-19T02:55:25;16.30;98.20
11399;DHT22;5755;48.116;11.608;2023-09-19T02:57:53;16.30;98.10
11399;DHT22;5755;48.116;11.608;2023-09-19T03:00:22;16.30;98.10
11399;DHT22;5755;48.116;11.608;2023-09-19T03:02:50;16.20;98.50
11399;DHT22;5755;48.116;11.608;2023-09-19T03:05:17;16.10;98.50
11399;DHT22;5755;48.116;11.608;2023-09-19T03:07:44;16.10;98.80
11399;DHT22;5755;48.116;11.608;2023-09-19T03:10:14;16.00;99.00
11399;DHT22;5755;48.116;11.608;2023-09-19T03:12:41;16.00;99.50
11399;DHT22;5755;48.116;11.608;2023-09-19T03:15:08;16.00;99.50
11399;DHT22;5755;48.116;11.608;2023-09-19T03:17:35;15.90;99.30
11399;DHT22;5755;48.116;11.608;2023-09-19T03:20:03;15.90;99.20
11399;DHT22;5755;48.116;11.608;2023-09-19T03:22:33;15.90;99.30
11399;DHT22;5755;48.116;11.608;2023-09-19T03:25:00;15.90;99.50
11399;DHT22;5755;48.116;11.608;2023-09-19T03:27:28;15.90;99.00
11399;DHT22;5755;48.116;11.608;2023-09-19T03:29:55;15.90;99.10
11399;DHT22;5755;48.116;11.608;2023-09-19T03:32:22;16.00;98.60
11399;DHT22;5755;48.116;11.608;2023-09-19T03:34:49;16.00;98.60
11399;DHT22;5755;48.116;11.608;2023-09-19T03:37:16;16.00;98.40
11399;DHT22;5755;48.116;11.608;2023-09-19T03:39:43;16.00;97.80
11399;DHT22;5755;48.116;11.608;2023-09-19T03:42:10;16.10;97.70
11399;DHT22;5755;48.116;11.608;2023-09-19T03:44:38;16.10;97.20
11399;DHT22;5755;48.116;11.608;2023-09-19T03:47:05;16.10;97.20
11399;DHT22;5755;48.116;11.608;2023-09-19T03:49:32;16.10;97.20
11399;DHT22;5755;48.116;11.608;2023-09-19T03:51:59;16.10;97.20
11399;DHT22;5755;48.116;11.608;2023-09-19T03:54:26;16.10;97.20
11399;DHT22;5755;48.116;11.608;2023-09-19T03:56:53;16.10;97.20
11399;DHT22;5755;48.116;11.608;2023-09-19T03:59:20;16.20;97.20
11399;DHT22;5755;48.116;11.608;2023-09-19T04:01:48;16.20;97.20
11399;DHT22;5755;48.116;11.608;2023-09-19T04:04:15;16.20;97.20
11399;DHT22;5755;48.116;11.608;2023-09-19T04:06:44;16.20;97.20
11399;DHT22;5755;48.116;11.608;2023-09-19T04:09:11;16.20;97.20
11399;DHT22;5755;48.116;11.608;2023-09-19T04:11:38;16.20;97.20
11399;DHT22;5755;48.116;11.608;2023-09-19T04:14:05;16.20;97.00
11399;DHT22;5755;48.116;11.608;2023-09-19T04:16:32;16.20;97.20
11399;DHT22;5755;48.116;11.608;2023-09-19T04:19:00;16.30;97.20
11399;DHT22;5755;48.116;11.608;2023-09-19T04:21:28;16.30;96.80
11399;DHT22;5755;48.116;11.608;2023-09-19T04:23:55;16.30;96.50
11399;DHT22;5755;48.116;11.608;2023-09-19T04:26:22;16.40;96.50
11399;DHT22;5755;48.116;11.608;2023-09-19T04:28:49;16.30;96.60
11399;DHT22;5755;48.116;11.608;2023-09-19T04:31:16;16.50;96.20
11399;DHT22;5755;48.116;11.608;2023-09-19T04:33:45;16.50;95.30
11399;DHT22;5755;48.116;11.608;2023-09-19T04:36:13;16.60;94.70
11399;DHT22;5755;48.116;11.608;2023-09-19T04:38:41;16.60;95.10
11399;DHT22;5755;48.116;11.608;2023-09-19T04:41:08;16.50;95.30
11399;DHT22;5755;48.116;11.608;2023-09-19T04:43:34;16.50;95.40
11399;DHT22;5755;48.116;11.608;2023-09-19T04:46:01;16.60;94.80
11399;DHT22;5755;48.116;11.608;2023-09-19T04:48:28;16.60;94.80
11399;DHT22;5755;48.116;11.608;2023-09-19T04:50:55;16.60;94.50
11399;DHT22;5755;48.116;11.608;2023-09-19T04:53:24;16.60;94.50
11399;DHT22;5755;48.116;11.608;2023-09-19T04:55:51;16.60;94.70
11399;DHT22;5755;48.116;11.608;2023-09-19T04:58:21;16.50;94.60
11399;DHT22;5755;48.116;11.608;2023-09-19T05:00:48;16.50;94.40
11399;DHT22;5755;48.116;11.608;2023-09-19T05:03:16;16.60;94.10
11399;DHT22;5755;48.116;11.608;2023-09-19T05:05:45;16.60;94.20
11399;DHT22;5755;48.116;11.608;2023-09-19T05:08:12;16.60;94.00
11399;DHT22;5755;48.116;11.608;2023-09-19T05:10:41;16.60;93.70
11399;DHT22;5755;48.116;11.608;2023-09-19T05:13:08;16.60;93.50
11399;DHT22;5755;48.116;11.608;2023-09-19T05:15:36;16.70;93.70
11399;DHT22;5755;48.116;11.608;2023-09-19T05:18:03;16.70;93.50
11399;DHT22;5755;48.116;11.608;2023-09-19T05:20:32;16.70;93.50
11399;DHT22;5755;48.116;11.608;2023-09-19T05:23:01;16.80;92.90
11399;DHT22;5755;48.116;11.608;2023-09-19T05:25:28;16.90;92.80
11399;DHT22;5755;48.116;11.608;2023-09-19T05:27:58;16.90;92.70
11399;DHT22;5755;48.116;11.608;2023-09-19T05:30:26;16.90;92.40
11399;DHT22;5755;48.116;11.608;2023-09-19T05:32:54;16.90;92.50
11399;DHT22;5755;48.116;11.608;2023-09-19T05:35:21;16.90;92.60
11399;DHT22;5755;48.116;11.608;2023-09-19T05:37:50;16.90;92.40
11399;DHT22;5755;48.116;11.608;2023-09-19T05:40:17;16.90;92.30
11399;DHT22;5755;48.116;11.608;2023-09-19T05:42:44;16.90;92.30
11399;DHT22;5755;48.116;11.608;2023-09-19T05:45:13;16.90;91.90
11399;DHT22;5755;48.116;11.608;2023-09-19T05:47:44;17.00;91.90
11399;DHT22;5755;48.116;11.608;2023-09-19T05:50:12;17.00;91.90
11399;DHT22;5755;48.116;11.608;2023-09-19T05:52:40;16.90;91.90
11399;DHT22;5755;48.116;11.608;2023-09-19T05:55:09;16.90;91.90
11399;DHT22;5755;48.116;11.608;2023-09-19T05:57:37;16.80;91.90
11399;DHT22;5755;48.116;11.608;2023-09-19T06:00:05;16.70;92.30
11399;DHT22;5755;48.116;11.608;2023-09-19T06:02:35;16.80;92.30
11399;DHT22;5755;48.116;11.608;2023-09-19T06:05:04;16.70;92.50
11399;DHT22;5755;48.116;11.608;2023-09-19T06:07:31;16.80;92.50
11399;DHT22;5755;48.116;11.608;2023-09-19T06:10:02;16.90;92.10
11399;DHT22;5755;48.116;11.608;2023-09-19T06:12:31;17.10;92.00
11399;DHT22;5755;48.116;11.608;2023-09-19T06:14:58;17.30;92.00
11399;DHT22;5755;48.116;11.608;2023-09-19T06:17:25;17.40;92.00
11399;DHT22;5755;48.116;11.608;2023-09-19T06:19:54;17.50;91.50
11399;DHT22;5755;48.116;11.608;2023-09-19T06:22:21;17.60;91.20
11399;DHT22;5755;48.116;11.608;2023-09-19T06:24:49;17.60;91.10
11399;DHT22;5755;48.116;11.608;2023-09-19T06:27:16;17.80;90.20
11399;DHT22;5755;48.116;11.608;2023-09-19T06:29:43;17.90;88.90
11399;DHT22;5755;48.116;11.608;2023-09-19T06:32:10;17.90;89.10
11399;DHT22;5755;48.116;11.608;2023-09-19T06:34:37;18.00;88.00
11399;DHT22;5755;48.116;11.608;2023-09-19T06:37:05;18.20;84.90
11399;DHT22;5755;48.116;11.608;2023-09-19T06:39:32;18.30;85.10
11399;DHT22;5755;48.116;11.608;2023-09-19T06:41:59;18.30;86.20
11399;DHT22;5755;48.116;11.608;2023-09-19T06:44:27;18.20;85.60
11399;DHT22;5755;48.116;11.608;2023-09-19T06:46:55;18.10;86.70
11399;DHT22;5755;48.116;11.608;2023-09-19T06:49:22;18.10;88.20
11399;DHT22;5755;48.116;11.608;2023-09-19T06:51:48;18.00;87.10
11399;DHT22;5755;48.116;11.608;2023-09-19T06:54:18;18.10;87.00
11399;DHT22;5755;48.116;11.608;2023-09-19T06:56:46;18.00;88.10
11399;DHT22;5755;48.116;11.608;2023-09-19T06:59:13;18.00;86.80
11399;DHT22;5755;48.116;11.608;2023-09-19T07:01:42;17.90;86.70
11399;DHT22;5755;48.116;11.608;2023-09-19T07:04:10;17.80;87.70
11399;DHT22;5755;48.116;11.608;2023-09-19T07:06:38;17.80;88.90
11399;DHT22;5755;48.116;11.608;2023-09-19T07:09:05;18.00;88.50
11399;DHT22;5755;48.116;11.608;2023-09-19T07:11:35;18.20;87.10
11399;DHT22;5755;48.116;11.608;2023-09-19T07:14:02;18.50;85.20
11399;DHT22;5755;48.116;11.608;2023-09-19T07:16:31;18.60;82.60
11399;DHT22;5755;48.116;11.608;2023-09-19T07:18:58;18.60;82.60
11399;DHT22;5755;48.116;11.608;2023-09-19T07:21:24;18.70;81.40
11399;DHT22;5755;48.116;11.608;2023-09-19T07:23:51;18.70;81.80
11399;DHT22;5755;48.116;11.608;2023-09-19T07:26:18;18.50;83.10
11399;DHT22;5755;48.116;11.608;2023-09-19T07:28:46;18.50;84.10
11399;DHT22;5755;48.116;11.608;2023-09-19T07:31:13;18.40;84.20
11399;DHT22;5755;48.116;11.608;2023-09-19T07:33:40;18.40;84.00
11399;DHT22;5755;48.116;11.608;2023-09-19T07:36:10;18.40;84.60
11399;DHT22;5755;48.116;11.608;2023-09-19T07:38:39;18.40;84.50
11399;DHT22;5755;48.116;11.608;2023-09-19T07:41:06;18.60;83.60
11399;DHT22;5755;48.116;11.608;2023-09-19T07:43:34;18.70;83.50
11399;DHT22;5755;48.116;11.608;2023-09-19T07:46:06;18.80;81.90
11399;DHT22;5755;48.116;11.608;2023-09-19T07:48:34;18.90;83.20
11399;DHT22;5755;48.116;11.608;2023-09-19T07:51:03;19.00;82.20
11399;DHT22;5755;48.116;11.608;2023-09-19T07:53:30;19.10;80.50
11399;DHT22;5755;48.116;11.608;2023-09-19T07:56:03;19.30;78.60
11399;DHT22;5755;48.116;11.608;2023-09-19T07:58:30;19.30;80.30
11399;DHT22;5755;48.116;11.608;2023-09-19T08:01:03;19.20;78.70
11399;DHT22;5755;48.116;11.608;2023-09-19T08:03:31;19.30;77.90
11399;DHT22;5755;48.116;11.608;2023-09-19T08:05:58;19.30;79.30
11399;DHT22;5755;48.116;11.608;2023-09-19T08:08:25;19.30;78.90
11399;DHT22;5755;48.116;11.608;2023-09-19T08:10:53;19.40;79.40
11399;DHT22;5755;48.116;11.608;2023-09-19T08:13:22;19.70;74.90
11399;DHT22;5755;48.116;11.608;2023-09-19T08:15:49;19.90;75.10
11399;DHT22;5755;48.116;11.608;2023-09-19T08:18:16;20.00;70.40
11399;DHT22;5755;48.116;11.608;2023-09-19T08:20:49;20.10;67.80
11399;DHT22;5755;48.116;11.608;2023-09-19T08:23:16;20.20;69.50
11399;DHT22;5755;48.116;11.608;2023-09-19T08:25:45;20.30;71.50
11399;DHT22;5755;48.116;11.608;2023-09-19T08:28:12;20.30;68.00
11399;DHT22;5755;48.116;11.608;2023-09-19T08:30:43;20.40;69.80
11399;DHT22;5755;48.116;11.608;2023-09-19T08:33:10;20.40;65.20
11399;DHT22;5755;48.116;11.608;2023-09-19T08:35:37;20.40;66.90
11399;DHT22;5755;48.116;11.608;2023-09-19T08:38:06;20.20;67.60
11399;DHT22;5755;48.116;11.608;2023-09-19T08:40:36;20.00;69.00
11399;DHT22;5755;48.116;11.608;2023-09-19T08:43:05;20.10;63.80
11399;DHT22;5755;48.116;11.608;2023-09-19T08:45:33;20.00;66.00
11399;DHT22;5755;48.116;11.608;2023-09-19T08:48:11;20.00;66.30
11399;DHT22;5755;48.116;11.608;2023-09-19T08:50:49;20.40;60.60
11399;DHT22;5755;48.116;11.608;2023-09-19T08:53:21;20.80;56.60
11399;DHT22;5755;48.116;11.608;2023-09-19T08:55:53;20.90;55.40
11399;DHT22;5755;48.116;11.608;2023-09-19T08:58:22;21.40;50.60
11399;DHT22;5755;48.116;11.608;2023-09-19T09:00:54;22.10;45.80
11399;DHT22;5755;48.116;11.608;2023-09-19T09:03:22;23.20;40.10
11399;DHT22;5755;48.116;11.608;2023-09-19T09:05:50;23.40;36.60
11399;DHT22;5755;48.116;11.608;2023-09-19T09:08:19;23.00;37.80
11399;DHT22;5755;48.116;11.608;2023-09-19T09:10:47;22.80;34.40
11399;DHT22;5755;48.116;11.608;2023-09-19T09:13:14;22.20;38.90
11399;DHT22;5755;48.116;11.608;2023-09-19T09:15:41;21.80;40.90
11399;DHT22;5755;48.116;11.608;2023-09-19T09:18:10;21.70;41.70
11399;DHT22;5755;48.116;11.608;2023-09-19T09:20:37;21.20;44.30
11399;DHT22;5755;48.116;11.608;2023-09-19T09:23:04;21.10;44.40
11399;DHT22;5755;48.116;11.608;2023-09-19T09:25:52;20.70;47.70
11399;DHT22;5755;48.116;11.608;2023-09-19T09:28:23;20.70;46.10
11399;DHT22;5755;48.116;11.608;2023-09-19T09:30:50;20.60;48.40
11399;DHT22;5755;48.116;11.608;2023-09-19T09:33:18;20.60;47.80
11399;DHT22;5755;48.116;11.608;2023-09-19T09:35:49;20.80;44.60
11399;DHT22;5755;48.116;11.608;2023-09-19T09:38:23;21.70;40.30
11399;DHT22;5755;48.116;11.608;2023-09-19T09:40:55;22.70;34.30
11399;DHT22;5755;48.116;11.608;2023-09-19T09:43:29;23.90;32.70
11399;DHT22;5755;48.116;11.608;2023-09-19T09:46:12;25.40;23.20
11399;DHT22;5755;48.116;11.608;2023-09-19T09:48:58;25.90;20.20
11399;DHT22;5755;48.116;11.608;2023-09-19T09:51:43;25.90;17.60
11399;DHT22;5755;48.116;11.608;2023-09-19T09:54:14;26.00;17.80
11399;DHT22;5755;48.116;11.608;2023-09-19T09:56:55;25.90;18.20
11399;DHT22;5755;48.116;11.608;2023-09-19T09:59:45;25.30;19.70
11399;DHT22;5755;48.116;11.608;2023-09-19T10:02:17;24.10;21.80
11399;DHT22;5755;48.116;11.608;2023-09-19T10:04:50;23.40;24.70
11399;DHT22;5755;48.116;11.608;2023-09-19T10:07:35;24.10;23.70
11399;DHT22;5755;48.116;11.608;2023-09-19T10:10:07;25.20;22.20
11399;DHT22;5755;48.116;11.608;2023-09-19T10:12:43;25.60;19.50
11399;DHT22;5755;48.116;11.608;2023-09-19T10:15:11;25.90;18.00
11399;DHT22;5755;48.116;11.608;2023-09-19T10:17:43;26.10;19.10
11399;DHT22;5755;48.116;11.608;2023-09-19T10:20:13;26.40;18.00
11399;DHT22;5755;48.116;11.608;2023-09-19T10:23:05;26.70;16.80
11399;DHT22;5755;48.116;11.608;2023-09-19T10:25:37;26.20;18.40
11399;DHT22;5755;48.116;11.608;2023-09-19T10:28:06;26.50;16.70
11399;DHT22;5755;48.116;11.608;2023-09-19T10:30:37;26.50;17.30
11399;DHT22;5755;48.116;11.608;2023-09-19T10:33:09;26.30;17.90
11399;DHT22;5755;48.116;11.608;2023-09-19T10:35:38;26.40;18.30
11399;DHT22;5755;48.116;11.608;2023-09-19T10:38:06;26.50;17.90
11399;DHT22;5755;48.116;11.608;2023-09-19T10:40:35;27.00;17.10
11399;DHT22;5755;48.116;11.608;2023-09-19T10:43:12;26.80;17.20
11399;DHT22;5755;48.116;11.608;2023-09-19T10:45:41;26.60;17.40
11399;DHT22;5755;48.116;11.608;2023-09-19T10:48:10;26.70;16.00
11399;DHT22;5755;48.116;11.608;2023-09-19T10:50:44;26.90;16.20
11399;DHT22;5755;48.116;11.608;2023-09-19T10:53:14;26.50;16.80
11399;DHT22;5755;48.116;11.608;2023-09-19T10:55:50;26.50;17.20
11399;DHT22;5755;48.116;11.608;2023-09-19T10:58:28;26.00;18.60
11399;DHT22;5755;48.116;11.608;2023-09-19T11:00:56;25.90;18.20
11399;DHT22;5755;48.116;11.608;2023-09-19T11:03:28;25.80;22.50
11399;DHT22;5755;48.116;11.608;2023-09-19T11:06:07;25.80;19.00
11399;DHT22;5755;48.116;11.608;2023-09-19T11:11:44;25.00;21.10
11399;DHT22;5755;48.116;11.608;2023-09-19T11:14:38;24.80;23.80
11399;DHT22;5755;48.116;11.608;2023-09-19T11:17:33;24.50;23.00
11399;DHT22;5755;48.116;11.608;2023-09-19T11:20:20;23.70;23.30
11399;DHT22;5755;48.116;11.608;2023-09-19T11:23:21;23.10;24.80
11399;DHT22;5755;48.116;11.608;2023-09-19T11:25:56;22.70;27.20
11399;DHT22;5755;48.116;11.608;2023-09-19T11:28:35;22.50;27.20
11399;DHT22;5755;48.116;11.608;2023-09-19T11:34:50;23.00;26.90
11399;DHT22;5755;48.116;11.608;2023-09-19T11:40:37;23.40;21.60
11399;DHT22;5755;48.116;11.608;2023-09-19T11:43:33;23.60;23.20
11399;DHT22;5755;48.116;11.608;2023-09-19T11:46:06;23.40;21.30
11399;DHT22;5755;48.116;11.608;2023-09-19T11:48:33;23.00;20.10
11399;DHT22;5755;48.116;11.608;2023-09-19T11:51:11;22.90;22.70
11399;DHT22;5755;48.116;11.608;2023-09-19T11:53:45;22.90;20.70
11399;DHT22;5755;48.116;11.608;2023-09-19T11:56:14;22.60;20.90
11399;DHT22;5755;48.116;11.608;2023-09-19T11:58:43;22.30;20.00
11399;DHT22;5755;48.116;11.608;2023-09-19T12:01:13;22.20;22.10
11399;DHT22;5755;48.116;11.608;2023-09-19T12:03:43;22.20;22.10
11399;DHT22;5755;48.116;11.608;2023-09-19T12:06:15;22.50;22.40
11399;DHT22;5755;48.116;11.608;2023-09-19T12:08:43;22.90;22.70
11399;DHT22;5755;48.116;11.608;2023-09-19T12:11:13;23.30;20.60
11399;DHT22;5755;48.116;11.608;2023-09-19T12:13:43;23.60;20.60
11399;DHT22;5755;48.116;11.608;2023-09-19T12:16:13;23.70;22.20
11399;DHT22;5755;48.116;11.608;2023-09-19T12:18:43;23.80;19.40
11399;DHT22;5755;48.116;11.608;2023-09-19T12:21:35;23.80;19.90
11399;DHT22;5755;48.116;11.608;2023-09-19T12:24:07;23.60;20.10
11399;DHT22;5755;48.116;11.608;2023-09-19T12:26:42;23.60;19.40
11399;DHT22;5755;48.116;11.608;2023-09-19T12:29:14;23.60;19.30
11399;DHT22;5755;48.116;11.608;2023-09-19T12:31:50;23.40;19.90
11399;DHT22;5755;48.116;11.608;2023-09-19T12:34:20;23.40;22.10
11399;DHT22;5755;48.116;11.608;2023-09-19T12:36:48;23.40;21.50
11399;DHT22;5755;48.116;11.608;2023-09-19T12:39:24;23.50;20.00
11399;DHT22;5755;48.116;11.608;2023-09-19T12:41:52;23.40;19.00
11399;DHT22;5755;48.116;11.608;2023-09-19T12:44:20;23.30;20.00
11399;DHT22;5755;48.116;11.608;2023-09-19T12:46:51;23.20;19.90
11399;DHT22;5755;48.116;11.608;2023-09-19T12:49:20;23.20;20.70
11399;DHT22;5755;48.116;11.608;2023-09-19T12:51:54;23.40;21.60
11399;DHT22;5755;48.116;11.608;2023-09-19T12:54:24;23.40;21.60
11399;DHT22;5755;48.116;11.608;2023-09-19T12:56:52;23.60;20.20
11399;DHT22;5755;48.116;11.608;2023-09-19T12:59:29;23.60;20.30
11399;DHT22;5755;48.116;11.608;2023-09-19T13:02:03;23.40;21.20
11399;DHT22;5755;48.116;11.608;2023-09-19T13:04:31;23.40;22.60
11399;DHT22;5755;48.116;11.608;2023-09-19T13:07:01;23.60;22.60
11399;DHT22;5755;48.116;11.608;2023-09-19T13:09:28;23.70;21.40
11399;DHT22;5755;48.116;11.608;2023-09-19T13:12:00;23.70;21.10
11399;DHT22;5755;48.116;11.608;2023-09-19T13:14:28;23.70;21.00
11399;DHT22;5755;48.116;11.608;2023-09-19T13:16:58;23.70;20.50
11399;DHT22;5755;48.116;11.608;2023-09-19T13:19:36;23.60;20.70
11399;DHT22;5755;48.116;11.608;2023-09-19T13:29:47;23.40;21.60
11399;DHT22;5755;48.116;11.608;2023-09-19T13:32:14;23.40;21.30
11399;DHT22;5755;48.116;11.608;2023-09-19T13:37:16;23.10;22.60
11399;DHT22;5755;48.116;11.608;2023-09-19T13:55:17;23.00;23.10
11399;DHT22;5755;48.116;11.608;2023-09-19T13:57:45;22.90;21.90
11399;DHT22;5755;48.116;11.608;2023-09-19T14:00:13;22.90;20.30
11399;DHT22;5755;48.116;11.608;2023-09-19T14:02:41;22.90;21.00
11399;DHT22;5755;48.116;11.608;2023-09-19T14:05:10;22.80;20.00
11399;DHT22;5755;48.116;11.608;2023-09-19T14:07:38;22.70;20.40
11399;DHT22;5755;48.116;11.608;2023-09-19T14:10:07;22.80;20.80
11399;DHT22;5755;48.116;11.608;2023-09-19T14:12:37;22.80;20.70
11399;DHT22;5755;48.116;11.608;2023-09-19T14:20:11;22.70;21.30
11399;DHT22;5755;48.116;11.608;2023-09-19T14:22:45;22.70;22.50
11399;DHT22;5755;48.116;11.608;2023-09-19T14:25:13;22.50;22.40
11399;DHT22;5755;48.116;11.608;2023-09-19T14:27:41;22.50;22.40
11399;DHT22;5755;48.116;11.608;2023-09-19T14:30:11;22.50;21.90
11399;DHT22;5755;48.116;11.608;2023-09-19T14:32:38;22.60;22.50
11399;DHT22;5755;48.116;11.608;2023-09-19T14:35:07;22.60;22.00
11399;DHT22;5755;48.116;11.608;2023-09-19T14:37:38;22.70;23.60
11399;DHT22;5755;48.116;11.608;2023-09-19T14:40:06;22.60;23.30
11399;DHT22;5755;48.116;11.608;2023-09-19T14:42:39;22.70;22.50
11399;DHT22;5755;48.116;11.608;2023-09-19T14:45:12;22.70;22.70
11399;DHT22;5755;48.116;11.608;2023-09-19T14:47:42;22.60;21.60
11399;DHT22;5755;48.116;11.608;2023-09-19T14:50:09;22.50;23.60
11399;DHT22;5755;48.116;11.608;2023-09-19T14:52:40;22.40;22.80
11399;DHT22;5755;48.116;11.608;2023-09-19T14:55:08;22.50;22.40
11399;DHT22;5755;48.116;11.608;2023-09-19T14:57:41;22.50;22.40
11399;DHT22;5755;48.116;11.608;2023-09-19T15:00:13;22.30;23.60
11399;DHT22;5755;48.116;11.608;2023-09-19T15:02:40;22.20;24.90
11399;DHT22;5755;48.116;11.608;2023-09-19T15:05:07;22.10;25.10
11399;DHT22;5755;48.116;11.608;2023-09-19T15:07:35;22.20;24.70
11399;DHT22;5755;48.116;11.608;2023-09-19T15:10:04;22.10;25.00
11399;DHT22;5755;48.116;11.608;2023-09-19T15:12:35;22.20;23.70
11399;DHT22;5755;48.116;11.608;2023-09-19T15:15:06;22.00;22.90
11399;DHT22;5755;48.116;11.608;2023-09-19T15:17:36;22.20;22.90
11399;DHT22;5755;48.116;11.608;2023-09-19T15:20:03;22.00;21.90
11399;DHT22;5755;48.116;11.608;2023-09-19T15:22:32;22.00;21.90
11399;DHT22;5755;48.116;11.608;2023-09-19T15:25:00;22.00;21.90
11399;DHT22;5755;48.116;11.608;2023-09-19T15:27:31;21.90;23.00
11399;DHT22;5755;48.116;11.608;2023-09-19T15:29:59;21.80;23.90
11399;DHT22;5755;48.116;11.608;2023-09-19T15:32:28;21.80;24.30
11399;DHT22;5755;48.116;11.608;2023-09-19T15:34:57;21.70;24.80
11399;DHT22;5755;48.116;11.608;2023-09-19T15:37:24;21.60;24.90
11399;DHT22;5755;48.116;11.608;2023-09-19T15:39:51;21.60;25.20
11399;DHT22;5755;48.116;11.608;2023-09-19T15:42:19;21.50;26.50
11399;DHT22;5755;48.116;11.608;2023-09-19T15:44:46;21.50;26.70
11399;DHT22;5755;48.116;11.608;2023-09-19T15:47:15;21.50;27.40
11399;DHT22;5755;48.116;11.608;2023-09-19T15:49:42;21.50;26.10
11399;DHT22;5755;48.116;11.608;2023-09-19T15:52:11;21.60;26.80
11399;DHT22;5755;48.116;11.608;2023-09-19T15:54:37;21.60;26.20
11399;DHT22;5755;48.116;11.608;2023-09-19T15:57:09;21.60;26.00
11399;DHT22;5755;48.116;11.608;2023-09-19T15:59:38;21.60;27.00
11399;DHT22;5755;48.116;11.608;2023-09-19T16:02:05;21.40;27.40
11399;DHT22;5755;48.116;11.608;2023-09-19T16:04:32;21.30;28.40
11399;DHT22;5755;48.116;11.608;2023-09-19T16:07:00;21.20;28.00
11399;DHT22;5755;48.116;11.608;2023-09-19T16:09:29;21.10;27.30
11399;DHT22;5755;48.116;11.608;2023-09-19T16:11:59;21.20;27.80
11399;DHT22;5755;48.116;11.608;2023-09-19T16:14:26;21.10;27.40
11399;DHT22;5755;48.116;11.608;2023-09-19T16:16:56;21.20;25.80
11399;DHT22;5755;48.116;11.608;2023-09-19T16:19:25;21.20;25.70
11399;DHT22;5755;48.116;11.608;2023-09-19T16:21:52;21.20;27.30
11399;DHT22;5755;48.116;11.608;2023-09-19T16:24:21;21.00;27.00
11399;DHT22;5755;48.116;11.608;2023-09-19T16:26:49;21.00;27.70
11399;DHT22;5755;48.116;11.608;2023-09-19T16:29:17;20.90;29.00
11399;DHT22;5755;48.116;11.608;2023-09-19T16:31:44;20.70;28.40